createdAt,value
2023-04-23T00:23:31.875Z,83
2023-04-23T00:52:45.435Z,86
2023-04-23T01:21:58.745Z,89
2023-04-23T01:51:11.190Z,88
2023-04-23T02:20:23.457Z,87
2023-04-23T02:49:31.907Z,89
2023-04-23T03:18:39.659Z,90
2023-04-23T03:47:50.037Z,88
2023-04-23T04:16:55.960Z,87
2023-04-23T04:46:08.051Z,88
2023-04-23T05:15:00.165Z,83
2023-04-23T05:44:08.422Z,88
2023-04-23T06:13:21.312Z,88
2023-04-23T06:42:38.570Z,85
2023-04-23T07:11:57.594Z,81
2023-04-23T07:41:12.502Z,77
2023-04-23T08:10:33.420Z,74
2023-04-23T08:39:50.521Z,69
2023-04-23T09:09:05.220Z,65
2023-04-23T09:38:13.400Z,61
2023-04-23T10:07:33.733Z,62
2023-04-23T10:36:56.204Z,58
2023-04-23T11:06:20.904Z,54
2023-04-23T11:35:48.164Z,51
2023-04-23T12:05:20.214Z,44
2023-04-23T12:34:41.138Z,50
2023-04-23T13:03:48.238Z,49
2023-04-23T13:33:01.505Z,49
2023-04-23T14:02:21.405Z,48
2023-04-23T14:31:40.477Z,45
2023-04-23T15:01:00.174Z,47
2023-04-23T15:30:19.621Z,53
2023-04-23T15:59:15.887Z,60
2023-04-23T16:28:36.513Z,54
2023-04-23T16:58:00.685Z,55
2023-04-23T17:27:11.084Z,56
2023-04-23T17:56:25.998Z,61
2023-04-23T18:25:38.860Z,71
2023-04-23T18:54:51.794Z,72
2023-04-23T19:24:07.664Z,71
2023-04-23T19:53:07.913Z,74
2023-04-23T20:22:20.799Z,77
2023-04-23T20:51:24.566Z,76
2023-04-23T21:20:39.792Z,79
2023-04-23T21:50:01.892Z,76
2023-04-23T22:19:18.515Z,77
2023-04-23T22:48:37.617Z,77
2023-04-23T23:17:58.419Z,75
2023-04-23T23:47:16.349Z,78
